Kansk, Russia
Current Conditions -  °F | °C
As of 1:00 PM on Friday 19 Dec 2014 (Local Time) from UNKL Reporting Station
Overcast Overcast  
Wind Chill: 11°   Ceiling: 8300
Heat Index: 19°   Visibility: 6mi
Dew Point: 10°   Wind: 7mph
Humidity: 68%   Direction: 250°WSW
Pressure: 30.48"   Gusts: NA
Location:  56.2°N, 95.71°E
Report Text: UNKL 190600Z 25003MPS 9999 SCT036CB OVC083 M07/M12 Q1032 NOSIGRMK QFE748 29////55
Loading
Personal Weather Stations






























Interactive Weather Map New forecast layout! Learn more

10-Day Weather Forecast

Advertisements
Track Severe Weather on mobile